sensor_id;sensor_type;location;lat;lon;timestamp;temperature;humidity
42979;DHT22;28616;44.746;19.678;2022-09-28T00:00:28;13.70;99.90
42979;DHT22;28616;44.746;19.678;2022-09-28T00:02:54;13.60;99.90
42979;DHT22;28616;44.746;19.678;2022-09-28T00:05:24;13.60;99.90
42979;DHT22;28616;44.746;19.678;2022-09-28T00:07:54;13.60;99.90
42979;DHT22;28616;44.746;19.678;2022-09-28T00:10:20;13.60;99.90
42979;DHT22;28616;44.746;19.678;2022-09-28T00:12:48;13.60;99.90
42979;DHT22;28616;44.746;19.678;2022-09-28T00:15:14;13.60;99.90
42979;DHT22;28616;44.746;19.678;2022-09-28T00:17:40;13.60;99.90
42979;DHT22;28616;44.746;19.678;2022-09-28T00:20:09;13.60;99.90
42979;DHT22;28616;44.746;19.678;2022-09-28T00:22:36;13.60;99.90
42979;DHT22;28616;44.746;19.678;2022-09-28T00:25:02;13.60;99.90
42979;DHT22;28616;44.746;19.678;2022-09-28T00:27:28;13.60;99.90
42979;DHT22;28616;44.746;19.678;2022-09-28T00:29:53;13.60;99.90
42979;DHT22;28616;44.746;19.678;2022-09-28T00:32:20;13.60;99.90
42979;DHT22;28616;44.746;19.678;2022-09-28T00:34:49;13.60;99.90
42979;DHT22;28616;44.746;19.678;2022-09-28T00:37:16;13.50;99.90
42979;DHT22;28616;44.746;19.678;2022-09-28T00:39:44;13.50;99.90
42979;DHT22;28616;44.746;19.678;2022-09-28T00:42:20;13.50;99.90
42979;DHT22;28616;44.746;19.678;2022-09-28T00:52:54;13.60;99.90
42979;DHT22;28616;44.746;19.678;2022-09-28T00:55:59;13.60;99.90
42979;DHT22;28616;44.746;19.678;2022-09-28T00:58:29;13.60;99.90
42979;DHT22;28616;44.746;19.678;2022-09-28T01:00:57;13.60;99.90
42979;DHT22;28616;44.746;19.678;2022-09-28T01:03:24;13.60;99.90
42979;DHT22;28616;44.746;19.678;2022-09-28T01:05:52;13.60;99.90
42979;DHT22;28616;44.746;19.678;2022-09-28T01:08:20;13.60;99.90
42979;DHT22;28616;44.746;19.678;2022-09-28T01:10:47;13.60;99.90
42979;DHT22;28616;44.746;19.678;2022-09-28T01:13:14;13.60;99.90
42979;DHT22;28616;44.746;19.678;2022-09-28T01:16:08;13.60;99.90
42979;DHT22;28616;44.746;19.678;2022-09-28T01:19:03;13.60;99.90
42979;DHT22;28616;44.746;19.678;2022-09-28T01:25:00;13.60;99.90
42979;DHT22;28616;44.746;19.678;2022-09-28T01:27:31;13.70;99.90
42979;DHT22;28616;44.746;19.678;2022-09-28T01:30:05;13.60;99.90
42979;DHT22;28616;44.746;19.678;2022-09-28T01:32:54;13.60;99.90
42979;DHT22;28616;44.746;19.678;2022-09-28T01:35:34;13.60;99.90
42979;DHT22;28616;44.746;19.678;2022-09-28T01:38:24;13.60;99.90
42979;DHT22;28616;44.746;19.678;2022-09-28T01:40:51;13.60;99.90
42979;DHT22;28616;44.746;19.678;2022-09-28T01:43:26;13.60;99.90
42979;DHT22;28616;44.746;19.678;2022-09-28T01:48:34;13.60;99.90
42979;DHT22;28616;44.746;19.678;2022-09-28T01:51:07;13.50;99.90
42979;DHT22;28616;44.746;19.678;2022-09-28T01:53:38;13.50;99.90
42979;DHT22;28616;44.746;19.678;2022-09-28T01:56:17;13.50;99.90
42979;DHT22;28616;44.746;19.678;2022-09-28T01:59:16;13.50;99.90
42979;DHT22;28616;44.746;19.678;2022-09-28T02:02:11;13.50;99.90
42979;DHT22;28616;44.746;19.678;2022-09-28T02:04:49;13.50;99.90
42979;DHT22;28616;44.746;19.678;2022-09-28T02:07:23;13.40;99.90
42979;DHT22;28616;44.746;19.678;2022-09-28T02:09:54;13.40;99.90
42979;DHT22;28616;44.746;19.678;2022-09-28T02:12:43;13.40;99.90
42979;DHT22;28616;44.746;19.678;2022-09-28T02:15:18;13.40;99.90
42979;DHT22;28616;44.746;19.678;2022-09-28T02:17:45;13.40;99.90
42979;DHT22;28616;44.746;19.678;2022-09-28T02:20:11;13.30;99.90
42979;DHT22;28616;44.746;19.678;2022-09-28T02:22:44;13.30;99.90
42979;DHT22;28616;44.746;19.678;2022-09-28T02:25:27;13.30;99.90
42979;DHT22;28616;44.746;19.678;2022-09-28T02:27:59;13.30;99.90
42979;DHT22;28616;44.746;19.678;2022-09-28T02:30:25;13.40;99.90
42979;DHT22;28616;44.746;19.678;2022-09-28T02:32:54;13.30;99.90
42979;DHT22;28616;44.746;19.678;2022-09-28T02:35:22;13.30;99.90
42979;DHT22;28616;44.746;19.678;2022-09-28T02:37:48;13.30;99.90
42979;DHT22;28616;44.746;19.678;2022-09-28T02:40:31;13.30;99.90
42979;DHT22;28616;44.746;19.678;2022-09-28T02:43:23;13.40;99.90
42979;DHT22;28616;44.746;19.678;2022-09-28T02:46:23;13.40;99.90
42979;DHT22;28616;44.746;19.678;2022-09-28T02:49:21;13.40;99.90
42979;DHT22;28616;44.746;19.678;2022-09-28T03:00:20;13.40;99.90
42979;DHT22;28616;44.746;19.678;2022-09-28T03:08:41;13.40;99.90
42979;DHT22;28616;44.746;19.678;2022-09-28T03:11:17;13.40;99.90
42979;DHT22;28616;44.746;19.678;2022-09-28T03:13:45;13.40;99.90
42979;DHT22;28616;44.746;19.678;2022-09-28T03:16:16;13.40;99.90
42979;DHT22;28616;44.746;19.678;2022-09-28T03:18:42;13.40;99.90
42979;DHT22;28616;44.746;19.678;2022-09-28T03:21:11;13.40;99.90
42979;DHT22;28616;44.746;19.678;2022-09-28T03:23:37;13.50;99.90
42979;DHT22;28616;44.746;19.678;2022-09-28T03:26:03;13.50;99.90
42979;DHT22;28616;44.746;19.678;2022-09-28T03:28:29;13.50;99.90
42979;DHT22;28616;44.746;19.678;2022-09-28T03:30:55;13.50;99.90
42979;DHT22;28616;44.746;19.678;2022-09-28T03:33:22;13.50;99.90
42979;DHT22;28616;44.746;19.678;2022-09-28T03:35:48;13.50;99.90
42979;DHT22;28616;44.746;19.678;2022-09-28T03:38:17;13.50;99.90
42979;DHT22;28616;44.746;19.678;2022-09-28T03:40:53;13.50;99.90
42979;DHT22;28616;44.746;19.678;2022-09-28T03:43:19;13.50;99.90
42979;DHT22;28616;44.746;19.678;2022-09-28T03:45:53;13.50;99.90
42979;DHT22;28616;44.746;19.678;2022-09-28T03:48:27;13.40;99.90
42979;DHT22;28616;44.746;19.678;2022-09-28T03:50:58;13.40;99.90
42979;DHT22;28616;44.746;19.678;2022-09-28T03:53:25;13.40;99.90
42979;DHT22;28616;44.746;19.678;2022-09-28T03:55:51;13.40;99.90
42979;DHT22;28616;44.746;19.678;2022-09-28T03:58:21;13.50;99.90
42979;DHT22;28616;44.746;19.678;2022-09-28T04:00:47;13.40;99.90
42979;DHT22;28616;44.746;19.678;2022-09-28T04:03:13;13.40;99.90
42979;DHT22;28616;44.746;19.678;2022-09-28T04:05:50;13.40;99.90
42979;DHT22;28616;44.746;19.678;2022-09-28T04:08:17;13.40;99.90
42979;DHT22;28616;44.746;19.678;2022-09-28T04:10:43;13.40;99.90
42979;DHT22;28616;44.746;19.678;2022-09-28T04:13:09;13.40;99.90
42979;DHT22;28616;44.746;19.678;2022-09-28T04:15:34;13.30;99.90
42979;DHT22;28616;44.746;19.678;2022-09-28T04:18:03;13.30;99.90
42979;DHT22;28616;44.746;19.678;2022-09-28T04:20:28;13.30;99.90
42979;DHT22;28616;44.746;19.678;2022-09-28T04:22:56;13.30;99.90
42979;DHT22;28616;44.746;19.678;2022-09-28T04:25:22;13.30;99.90
42979;DHT22;28616;44.746;19.678;2022-09-28T04:27:48;13.40;99.90
42979;DHT22;28616;44.746;19.678;2022-09-28T04:30:32;13.40;99.90
42979;DHT22;28616;44.746;19.678;2022-09-28T04:32:59;13.30;99.90
42979;DHT22;28616;44.746;19.678;2022-09-28T04:35:25;13.30;99.90
42979;DHT22;28616;44.746;19.678;2022-09-28T04:37:50;13.30;99.90
42979;DHT22;28616;44.746;19.678;2022-09-28T04:40:16;13.30;99.90
42979;DHT22;28616;44.746;19.678;2022-09-28T04:42:42;13.40;99.90
42979;DHT22;28616;44.746;19.678;2022-09-28T04:45:08;13.40;99.90
42979;DHT22;28616;44.746;19.678;2022-09-28T04:47:34;13.40;99.90
42979;DHT22;28616;44.746;19.678;2022-09-28T04:50:00;13.40;99.90
42979;DHT22;28616;44.746;19.678;2022-09-28T04:52:25;13.50;99.90
42979;DHT22;28616;44.746;19.678;2022-09-28T04:54:51;13.50;99.90
42979;DHT22;28616;44.746;19.678;2022-09-28T04:57:17;13.50;99.90
42979;DHT22;28616;44.746;19.678;2022-09-28T04:59:43;13.50;99.90
42979;DHT22;28616;44.746;19.678;2022-09-28T05:02:09;13.50;99.90
42979;DHT22;28616;44.746;19.678;2022-09-28T05:04:35;13.50;99.90
42979;DHT22;28616;44.746;19.678;2022-09-28T05:07:00;13.50;99.90
42979;DHT22;28616;44.746;19.678;2022-09-28T05:09:26;13.50;99.90
42979;DHT22;28616;44.746;19.678;2022-09-28T05:11:52;13.60;99.90
42979;DHT22;28616;44.746;19.678;2022-09-28T05:14:18;13.50;99.90
42979;DHT22;28616;44.746;19.678;2022-09-28T05:16:47;13.40;99.90
42979;DHT22;28616;44.746;19.678;2022-09-28T05:19:13;13.40;99.90
42979;DHT22;28616;44.746;19.678;2022-09-28T05:21:39;13.50;99.90
42979;DHT22;28616;44.746;19.678;2022-09-28T05:24:07;13.50;99.90
42979;DHT22;28616;44.746;19.678;2022-09-28T05:26:33;13.50;99.90
42979;DHT22;28616;44.746;19.678;2022-09-28T05:28:59;13.50;99.90
42979;DHT22;28616;44.746;19.678;2022-09-28T05:31:25;13.60;99.90
42979;DHT22;28616;44.746;19.678;2022-09-28T05:33:52;13.60;99.90
42979;DHT22;28616;44.746;19.678;2022-09-28T05:36:18;13.50;99.90
42979;DHT22;28616;44.746;19.678;2022-09-28T05:38:45;13.60;99.90
42979;DHT22;28616;44.746;19.678;2022-09-28T05:41:11;13.60;99.90
42979;DHT22;28616;44.746;19.678;2022-09-28T05:43:37;13.60;99.90
42979;DHT22;28616;44.746;19.678;2022-09-28T05:46:04;13.60;99.90
42979;DHT22;28616;44.746;19.678;2022-09-28T05:48:30;13.60;99.90
42979;DHT22;28616;44.746;19.678;2022-09-28T05:50:56;13.70;99.90
42979;DHT22;28616;44.746;19.678;2022-09-28T05:53:25;13.70;99.90
42979;DHT22;28616;44.746;19.678;2022-09-28T05:55:51;13.70;99.90
42979;DHT22;28616;44.746;19.678;2022-09-28T05:58:16;13.70;99.90
42979;DHT22;28616;44.746;19.678;2022-09-28T06:00:42;13.70;99.90
42979;DHT22;28616;44.746;19.678;2022-09-28T06:03:11;13.60;99.90
42979;DHT22;28616;44.746;19.678;2022-09-28T06:05:38;13.60;99.90
42979;DHT22;28616;44.746;19.678;2022-09-28T06:08:05;13.70;99.90
42979;DHT22;28616;44.746;19.678;2022-09-28T06:10:33;13.70;99.90
42979;DHT22;28616;44.746;19.678;2022-09-28T06:12:59;13.70;99.90
42979;DHT22;28616;44.746;19.678;2022-09-28T06:15:27;13.80;99.90
42979;DHT22;28616;44.746;19.678;2022-09-28T06:18:00;13.80;99.90
42979;DHT22;28616;44.746;19.678;2022-09-28T06:20:28;13.80;99.90
42979;DHT22;28616;44.746;19.678;2022-09-28T06:22:54;13.80;99.90
42979;DHT22;28616;44.746;19.678;2022-09-28T06:25:21;13.80;99.90
42979;DHT22;28616;44.746;19.678;2022-09-28T06:30:25;13.80;99.90
42979;DHT22;28616;44.746;19.678;2022-09-28T06:32:55;13.80;99.90
42979;DHT22;28616;44.746;19.678;2022-09-28T06:35:23;13.80;99.90
42979;DHT22;28616;44.746;19.678;2022-09-28T06:37:50;13.90;99.90
42979;DHT22;28616;44.746;19.678;2022-09-28T06:40:16;13.90;99.90
42979;DHT22;28616;44.746;19.678;2022-09-28T06:42:42;13.90;99.90
42979;DHT22;28616;44.746;19.678;2022-09-28T06:45:08;13.90;99.90
42979;DHT22;28616;44.746;19.678;2022-09-28T06:47:35;13.90;99.90
42979;DHT22;28616;44.746;19.678;2022-09-28T06:50:03;13.90;99.90
42979;DHT22;28616;44.746;19.678;2022-09-28T06:52:35;14.00;99.90
42979;DHT22;28616;44.746;19.678;2022-09-28T06:55:01;14.00;99.90
42979;DHT22;28616;44.746;19.678;2022-09-28T06:57:26;14.00;99.90
42979;DHT22;28616;44.746;19.678;2022-09-28T06:59:52;14.00;99.90
42979;DHT22;28616;44.746;19.678;2022-09-28T07:02:18;14.00;99.90
42979;DHT22;28616;44.746;19.678;2022-09-28T07:04:44;14.00;99.90
42979;DHT22;28616;44.746;19.678;2022-09-28T07:07:10;14.00;99.90
42979;DHT22;28616;44.746;19.678;2022-09-28T07:09:37;14.10;99.90
42979;DHT22;28616;44.746;19.678;2022-09-28T07:12:03;14.20;99.90
42979;DHT22;28616;44.746;19.678;2022-09-28T07:14:32;14.20;99.90
42979;DHT22;28616;44.746;19.678;2022-09-28T07:16:58;14.40;99.90
42979;DHT22;28616;44.746;19.678;2022-09-28T07:19:24;14.40;99.90
42979;DHT22;28616;44.746;19.678;2022-09-28T07:21:53;14.50;99.90
42979;DHT22;28616;44.746;19.678;2022-09-28T07:24:19;14.60;99.90
42979;DHT22;28616;44.746;19.678;2022-09-28T07:26:44;14.50;99.90
42979;DHT22;28616;44.746;19.678;2022-09-28T07:29:11;14.60;99.90
42979;DHT22;28616;44.746;19.678;2022-09-28T07:31:38;14.60;99.90
42979;DHT22;28616;44.746;19.678;2022-09-28T07:34:04;14.60;99.90
42979;DHT22;28616;44.746;19.678;2022-09-28T07:36:30;14.60;99.90
42979;DHT22;28616;44.746;19.678;2022-09-28T07:39:00;14.60;99.90
42979;DHT22;28616;44.746;19.678;2022-09-28T07:41:26;14.70;99.90
42979;DHT22;28616;44.746;19.678;2022-09-28T07:43:59;14.70;99.90
42979;DHT22;28616;44.746;19.678;2022-09-28T07:46:35;14.70;99.90
42979;DHT22;28616;44.746;19.678;2022-09-28T07:49:01;14.80;99.90
42979;DHT22;28616;44.746;19.678;2022-09-28T07:51:30;14.80;99.90
42979;DHT22;28616;44.746;19.678;2022-09-28T07:53:56;14.70;99.90
42979;DHT22;28616;44.746;19.678;2022-09-28T07:56:22;14.70;99.90
42979;DHT22;28616;44.746;19.678;2022-09-28T07:58:48;14.80;99.90
42979;DHT22;28616;44.746;19.678;2022-09-28T08:01:14;14.80;99.90
42979;DHT22;28616;44.746;19.678;2022-09-28T08:03:41;15.00;99.90
42979;DHT22;28616;44.746;19.678;2022-09-28T08:06:14;15.20;99.90
42979;DHT22;28616;44.746;19.678;2022-09-28T08:08:42;15.60;99.90
42979;DHT22;28616;44.746;19.678;2022-09-28T08:11:13;16.10;99.90
42979;DHT22;28616;44.746;19.678;2022-09-28T08:13:39;16.30;99.90
42979;DHT22;28616;44.746;19.678;2022-09-28T08:16:05;16.70;99.90
42979;DHT22;28616;44.746;19.678;2022-09-28T08:18:35;16.90;99.90
42979;DHT22;28616;44.746;19.678;2022-09-28T08:21:02;17.00;99.90
42979;DHT22;28616;44.746;19.678;2022-09-28T08:23:47;17.00;99.90
42979;DHT22;28616;44.746;19.678;2022-09-28T08:26:12;17.00;99.90
42979;DHT22;28616;44.746;19.678;2022-09-28T08:28:38;17.00;99.90
42979;DHT22;28616;44.746;19.678;2022-09-28T08:31:04;17.10;99.90
42979;DHT22;28616;44.746;19.678;2022-09-28T08:33:32;17.20;99.90
42979;DHT22;28616;44.746;19.678;2022-09-28T08:35:59;17.40;99.90
42979;DHT22;28616;44.746;19.678;2022-09-28T08:38:27;17.60;99.90
42979;DHT22;28616;44.746;19.678;2022-09-28T08:41:10;17.90;99.90
42979;DHT22;28616;44.746;19.678;2022-09-28T08:44:18;18.00;99.90
42979;DHT22;28616;44.746;19.678;2022-09-28T08:47:00;17.90;99.90
42979;DHT22;28616;44.746;19.678;2022-09-28T08:49:37;17.80;99.90
42979;DHT22;28616;44.746;19.678;2022-09-28T08:52:16;17.70;99.90
42979;DHT22;28616;44.746;19.678;2022-09-28T08:57:14;17.80;99.90
42979;DHT22;28616;44.746;19.678;2022-09-28T08:59:53;17.70;99.90
42979;DHT22;28616;44.746;19.678;2022-09-28T09:02:26;17.90;99.90
42979;DHT22;28616;44.746;19.678;2022-09-28T09:04:53;17.70;99.90
42979;DHT22;28616;44.746;19.678;2022-09-28T09:07:47;17.60;99.90
42979;DHT22;28616;44.746;19.678;2022-09-28T09:18:36;18.30;99.90
42979;DHT22;28616;44.746;19.678;2022-09-28T09:21:46;18.60;99.90
42979;DHT22;28616;44.746;19.678;2022-09-28T09:24:18;18.70;99.90
42979;DHT22;28616;44.746;19.678;2022-09-28T09:26:47;18.80;99.90
42979;DHT22;28616;44.746;19.678;2022-09-28T09:35:07;19.00;99.90
42979;DHT22;28616;44.746;19.678;2022-09-28T09:46:19;19.30;99.90
42979;DHT22;28616;44.746;19.678;2022-09-28T09:53:59;19.90;99.90
42979;DHT22;28616;44.746;19.678;2022-09-28T09:59:06;20.00;99.90
42979;DHT22;28616;44.746;19.678;2022-09-28T10:01:37;20.20;99.90
42979;DHT22;28616;44.746;19.678;2022-09-28T10:04:13;20.30;99.90
42979;DHT22;28616;44.746;19.678;2022-09-28T10:09:38;20.40;99.90
42979;DHT22;28616;44.746;19.678;2022-09-28T10:12:08;20.60;99.90
42979;DHT22;28616;44.746;19.678;2022-09-28T10:14:36;20.60;99.90
42979;DHT22;28616;44.746;19.678;2022-09-28T10:17:03;20.80;99.90
42979;DHT22;28616;44.746;19.678;2022-09-28T10:22:03;21.00;99.90
42979;DHT22;28616;44.746;19.678;2022-09-28T14:04:58;21.80;99.90
42979;DHT22;28616;44.746;19.678;2022-09-28T14:10:21;21.20;99.90
42979;DHT22;28616;44.746;19.678;2022-09-28T14:12:52;21.10;99.90
42979;DHT22;28616;44.746;19.678;2022-09-28T14:20:24;20.80;99.90
42979;DHT22;28616;44.746;19.678;2022-09-28T14:25:59;20.60;99.90
42979;DHT22;28616;44.746;19.678;2022-09-28T14:29:14;20.40;99.90
42979;DHT22;28616;44.746;19.678;2022-09-28T14:31:28;20.40;99.90
42979;DHT22;28616;44.746;19.678;2022-09-28T14:33:59;20.40;99.90
42979;DHT22;28616;44.746;19.678;2022-09-28T14:36:37;20.30;99.90
42979;DHT22;28616;44.746;19.678;2022-09-28T14:39:30;20.30;99.90
42979;DHT22;28616;44.746;19.678;2022-09-28T14:42:22;20.30;99.90
42979;DHT22;28616;44.746;19.678;2022-09-28T14:47:42;20.10;99.90
42979;DHT22;28616;44.746;19.678;2022-09-28T14:50:24;20.10;99.90
42979;DHT22;28616;44.746;19.678;2022-09-28T14:53:23;20.00;99.90
42979;DHT22;28616;44.746;19.678;2022-09-28T14:55:53;20.00;99.90
42979;DHT22;28616;44.746;19.678;2022-09-28T14:58:25;19.90;99.90
42979;DHT22;28616;44.746;19.678;2022-09-28T15:01:00;19.90;99.90
42979;DHT22;28616;44.746;19.678;2022-09-28T15:03:29;19.90;99.90
42979;DHT22;28616;44.746;19.678;2022-09-28T15:05:55;19.90;99.90
42979;DHT22;28616;44.746;19.678;2022-09-28T15:08:21;19.90;99.90
42979;DHT22;28616;44.746;19.678;2022-09-28T15:10:49;19.80;99.90
42979;DHT22;28616;44.746;19.678;2022-09-28T15:13:25;19.80;99.90
42979;DHT22;28616;44.746;19.678;2022-09-28T15:16:05;19.70;99.90
42979;DHT22;28616;44.746;19.678;2022-09-28T15:19:01;19.70;99.90
42979;DHT22;28616;44.746;19.678;2022-09-28T15:21:36;19.60;99.90
42979;DHT22;28616;44.746;19.678;2022-09-28T15:24:26;19.60;99.90
42979;DHT22;28616;44.746;19.678;2022-09-28T15:26:53;19.60;99.90
42979;DHT22;28616;44.746;19.678;2022-09-28T15:29:20;19.50;99.90
42979;DHT22;28616;44.746;19.678;2022-09-28T15:31:47;19.50;99.90
42979;DHT22;28616;44.746;19.678;2022-09-28T15:34:34;19.50;99.90
42979;DHT22;28616;44.746;19.678;2022-09-28T15:37:25;19.50;99.90
42979;DHT22;28616;44.746;19.678;2022-09-28T15:39:53;19.40;99.90
42979;DHT22;28616;44.746;19.678;2022-09-28T15:42:19;19.30;99.90
42979;DHT22;28616;44.746;19.678;2022-09-28T15:45:03;19.30;99.90
42979;DHT22;28616;44.746;19.678;2022-09-28T15:47:32;19.20;99.90
42979;DHT22;28616;44.746;19.678;2022-09-28T15:50:21;19.10;99.90
42979;DHT22;28616;44.746;19.678;2022-09-28T15:53:03;19.10;99.90
42979;DHT22;28616;44.746;19.678;2022-09-28T15:55:34;19.10;99.90
42979;DHT22;28616;44.746;19.678;2022-09-28T15:58:05;19.00;99.90
42979;DHT22;28616;44.746;19.678;2022-09-28T16:00:32;19.00;99.90
42979;DHT22;28616;44.746;19.678;2022-09-28T16:08:38;18.90;99.90
42979;DHT22;28616;44.746;19.678;2022-09-28T16:11:14;18.90;99.90
42979;DHT22;28616;44.746;19.678;2022-09-28T16:16:29;18.80;99.90
42979;DHT22;28616;44.746;19.678;2022-09-28T16:18:59;18.80;99.90
42979;DHT22;28616;44.746;19.678;2022-09-28T16:21:49;18.80;99.90
42979;DHT22;28616;44.746;19.678;2022-09-28T16:24:23;18.80;99.90
42979;DHT22;28616;44.746;19.678;2022-09-28T16:26:58;18.80;99.90
42979;DHT22;28616;44.746;19.678;2022-09-28T16:29:37;18.80;99.90
42979;DHT22;28616;44.746;19.678;2022-09-28T16:37:43;18.70;99.90
42979;DHT22;28616;44.746;19.678;2022-09-28T16:40:11;18.60;99.90
42979;DHT22;28616;44.746;19.678;2022-09-28T16:42:43;18.60;99.90
42979;DHT22;28616;44.746;19.678;2022-09-28T16:45:19;18.50;99.90
42979;DHT22;28616;44.746;19.678;2022-09-28T16:47:46;18.50;99.90
42979;DHT22;28616;44.746;19.678;2022-09-28T16:50:19;18.40;99.90
42979;DHT22;28616;44.746;19.678;2022-09-28T16:52:45;18.40;99.90
42979;DHT22;28616;44.746;19.678;2022-09-28T16:55:30;18.40;99.90
42979;DHT22;28616;44.746;19.678;2022-09-28T16:57:56;18.30;99.90
42979;DHT22;28616;44.746;19.678;2022-09-28T17:00:25;18.30;99.90
42979;DHT22;28616;44.746;19.678;2022-09-28T17:02:51;18.20;99.90
42979;DHT22;28616;44.746;19.678;2022-09-28T17:05:18;18.20;99.90
42979;DHT22;28616;44.746;19.678;2022-09-28T17:07:47;18.20;99.90
42979;DHT22;28616;44.746;19.678;2022-09-28T17:10:35;18.10;99.90
42979;DHT22;28616;44.746;19.678;2022-09-28T17:13:02;18.10;99.90
42979;DHT22;28616;44.746;19.678;2022-09-28T17:15:28;18.10;99.90
42979;DHT22;28616;44.746;19.678;2022-09-28T17:17:54;18.00;99.90
42979;DHT22;28616;44.746;19.678;2022-09-28T17:20:24;18.00;99.90
42979;DHT22;28616;44.746;19.678;2022-09-28T17:22:51;17.90;99.90
42979;DHT22;28616;44.746;19.678;2022-09-28T17:25:19;17.90;99.90
42979;DHT22;28616;44.746;19.678;2022-09-28T17:27:46;17.90;99.90
42979;DHT22;28616;44.746;19.678;2022-09-28T17:30:13;17.90;99.90
42979;DHT22;28616;44.746;19.678;2022-09-28T17:32:40;17.80;99.90
42979;DHT22;28616;44.746;19.678;2022-09-28T17:35:10;17.80;99.90
42979;DHT22;28616;44.746;19.678;2022-09-28T17:37:37;17.80;99.90
42979;DHT22;28616;44.746;19.678;2022-09-28T17:42:39;17.90;99.90
42979;DHT22;28616;44.746;19.678;2022-09-28T17:45:05;17.80;99.90
42979;DHT22;28616;44.746;19.678;2022-09-28T17:47:31;17.90;99.90
42979;DHT22;28616;44.746;19.678;2022-09-28T17:49:56;17.80;99.90
42979;DHT22;28616;44.746;19.678;2022-09-28T17:52:23;17.80;99.90
42979;DHT22;28616;44.746;19.678;2022-09-28T17:54:49;17.90;99.90
42979;DHT22;28616;44.746;19.678;2022-09-28T17:57:14;17.90;99.90
42979;DHT22;28616;44.746;19.678;2022-09-28T17:59:40;17.80;99.90
42979;DHT22;28616;44.746;19.678;2022-09-28T18:02:09;17.80;99.90
42979;DHT22;28616;44.746;19.678;2022-09-28T18:04:35;17.80;99.90
42979;DHT22;28616;44.746;19.678;2022-09-28T18:07:01;17.90;99.90
42979;DHT22;28616;44.746;19.678;2022-09-28T18:09:27;17.80;99.90
42979;DHT22;28616;44.746;19.678;2022-09-28T18:12:00;17.80;99.90
42979;DHT22;28616;44.746;19.678;2022-09-28T18:14:28;17.80;99.90
42979;DHT22;28616;44.746;19.678;2022-09-28T18:16:54;17.80;99.90
42979;DHT22;28616;44.746;19.678;2022-09-28T18:19:20;17.80;99.90
42979;DHT22;28616;44.746;19.678;2022-09-28T18:21:46;17.80;99.90
42979;DHT22;28616;44.746;19.678;2022-09-28T18:24:12;17.70;99.90
42979;DHT22;28616;44.746;19.678;2022-09-28T18:26:38;17.70;99.90
42979;DHT22;28616;44.746;19.678;2022-09-28T18:29:04;17.70;99.90
42979;DHT22;28616;44.746;19.678;2022-09-28T18:31:30;17.70;99.90
42979;DHT22;28616;44.746;19.678;2022-09-28T18:33:59;17.70;99.90
42979;DHT22;28616;44.746;19.678;2022-09-28T18:36:31;17.70;99.90
42979;DHT22;28616;44.746;19.678;2022-09-28T18:39:00;17.70;99.90
42979;DHT22;28616;44.746;19.678;2022-09-28T18:41:26;17.70;99.90
42979;DHT22;28616;44.746;19.678;2022-09-28T18:43:52;17.70;99.90
42979;DHT22;28616;44.746;19.678;2022-09-28T18:46:25;17.70;99.90
42979;DHT22;28616;44.746;19.678;2022-09-28T18:48:53;17.70;99.90
42979;DHT22;28616;44.746;19.678;2022-09-28T18:51:19;17.70;99.90
42979;DHT22;28616;44.746;19.678;2022-09-28T18:53:45;17.70;99.90
42979;DHT22;28616;44.746;19.678;2022-09-28T18:56:14;17.70;99.90
42979;DHT22;28616;44.746;19.678;2022-09-28T18:58:43;17.60;99.90
42979;DHT22;28616;44.746;19.678;2022-09-28T19:01:11;17.60;99.90
42979;DHT22;28616;44.746;19.678;2022-09-28T19:03:37;17.50;99.90
42979;DHT22;28616;44.746;19.678;2022-09-28T19:06:08;17.60;99.90
42979;DHT22;28616;44.746;19.678;2022-09-28T19:08:35;17.50;99.90
42979;DHT22;28616;44.746;19.678;2022-09-28T19:11:11;17.50;99.90
42979;DHT22;28616;44.746;19.678;2022-09-28T19:13:37;17.50;99.90
42979;DHT22;28616;44.746;19.678;2022-09-28T19:16:11;17.50;99.90
42979;DHT22;28616;44.746;19.678;2022-09-28T19:18:37;17.50;99.90
42979;DHT22;28616;44.746;19.678;2022-09-28T19:21:06;17.40;99.90
42979;DHT22;28616;44.746;19.678;2022-09-28T19:23:33;17.40;99.90
42979;DHT22;28616;44.746;19.678;2022-09-28T19:26:03;17.40;99.90
42979;DHT22;28616;44.746;19.678;2022-09-28T19:28:29;17.40;99.90
42979;DHT22;28616;44.746;19.678;2022-09-28T19:31:00;17.40;99.90
42979;DHT22;28616;44.746;19.678;2022-09-28T19:33:26;17.30;99.90
42979;DHT22;28616;44.746;19.678;2022-09-28T19:36:00;17.30;99.90
42979;DHT22;28616;44.746;19.678;2022-09-28T19:38:28;17.30;99.90
42979;DHT22;28616;44.746;19.678;2022-09-28T19:40:54;17.30;99.90
42979;DHT22;28616;44.746;19.678;2022-09-28T19:43:20;17.30;99.90
42979;DHT22;28616;44.746;19.678;2022-09-28T19:45:47;17.30;99.90
42979;DHT22;28616;44.746;19.678;2022-09-28T19:48:24;17.30;99.90
42979;DHT22;28616;44.746;19.678;2022-09-28T19:51:01;17.20;99.90
42979;DHT22;28616;44.746;19.678;2022-09-28T19:53:32;17.20;99.90
42979;DHT22;28616;44.746;19.678;2022-09-28T19:56:01;17.10;99.90
42979;DHT22;28616;44.746;19.678;2022-09-28T19:58:35;17.10;99.90
42979;DHT22;28616;44.746;19.678;2022-09-28T20:01:07;17.10;99.90
42979;DHT22;28616;44.746;19.678;2022-09-28T20:03:33;17.00;99.90
42979;DHT22;28616;44.746;19.678;2022-09-28T20:06:00;17.00;99.90
42979;DHT22;28616;44.746;19.678;2022-09-28T20:08:27;17.00;99.90
42979;DHT22;28616;44.746;19.678;2022-09-28T20:10:55;16.90;99.90
42979;DHT22;28616;44.746;19.678;2022-09-28T20:13:22;16.90;99.90
42979;DHT22;28616;44.746;19.678;2022-09-28T20:15:48;16.90;99.90
42979;DHT22;28616;44.746;19.678;2022-09-28T20:18:14;16.80;99.90
42979;DHT22;28616;44.746;19.678;2022-09-28T20:20:40;16.80;99.90
42979;DHT22;28616;44.746;19.678;2022-09-28T20:23:10;16.70;99.90
42979;DHT22;28616;44.746;19.678;2022-09-28T20:25:36;16.70;99.90
42979;DHT22;28616;44.746;19.678;2022-09-28T20:28:03;16.60;99.90
42979;DHT22;28616;44.746;19.678;2022-09-28T20:30:30;16.60;99.90
42979;DHT22;28616;44.746;19.678;2022-09-28T20:32:56;16.60;99.90
42979;DHT22;28616;44.746;19.678;2022-09-28T20:35:22;16.50;99.90
42979;DHT22;28616;44.746;19.678;2022-09-28T20:37:47;16.50;99.90
42979;DHT22;28616;44.746;19.678;2022-09-28T20:40:15;16.50;99.90
42979;DHT22;28616;44.746;19.678;2022-09-28T20:42:44;16.50;99.90
42979;DHT22;28616;44.746;19.678;2022-09-28T20:45:11;16.50;99.90
42979;DHT22;28616;44.746;19.678;2022-09-28T20:47:37;16.50;99.90
42979;DHT22;28616;44.746;19.678;2022-09-28T20:50:03;16.50;99.90
42979;DHT22;28616;44.746;19.678;2022-09-28T20:52:31;16.40;99.90
42979;DHT22;28616;44.746;19.678;2022-09-28T20:54:57;16.40;99.90